Main page
METAR-TAF:

METAR-TAF

Airports :

Beauvais–Tillé Airport

Beauvais, France

latitude: 49-28N, longitude: 002-07E, elevation: 109 m

Current weather observation

The report was made 41 minutes ago, at 21:00 UTC
Wind 5 kt from the North
Temperature 14°C
Humidity 82%
Pressure 1021 hPa
Visibility 10 km or more
no clouds below 1500 m and no cumulonimbus

METAR: LFOB 172100Z AUTO 36005KT CAVOK 14/11 Q1021 NOSIG

Time: 23:41 (21:41 UTC)

Forecast

The report was made 4 hours and 41 minutes ago, at 17:00 UTC
Forecast valid from 17 at 18 UTC to 18 at 18 UTC
Wind 5 kt from the North/Northeast
Visibility 10 km or more
no clouds below 1500 m and no cumulonimbus

TAF: LFOB 171700Z 1718/1818 02005KT CAVOK

Weather observations and forecasts of more than 4000 airports (METAR and TAF reports).

The available stations are represented by yellow and red dots on the map.

Hover mouse over dot to see the name of the station.

Then click to see weather observations and forecasts.

To change the map : click on the green buttons with a black cross to zoom in, on the green button with a dash to zoom out, or on the green arrows for adjacent maps.


METAR-TAF: